Time;durP1;ratioP1;P1;durP2;ratioP2;P2;SDS_P1;SDS_P2;PMS_P1;PMS_P2;Temp;Humidity;BMP_temperature;BMP_pressure;BME280_temperature;BME280_humidity;BME280_pressure;Samples;Min_cycle;Max_cycle;Signal;HPM_P1;HPM_P2
2024/04/14 00:01:17;;;;;;;;;;;18.00;34.80;19.60;98941.00;;;;5596008;25;2257;-39
2024/04/14 00:03:44;;;;;;;;;;;18.00;34.70;19.60;98942.00;;;;5590183;25;1968;-40
2024/04/14 00:06:14;;;;;;;;;;;18.00;34.60;19.60;98939.00;;;;5595083;25;1707;-44
2024/04/14 00:08:41;;;;;;;;;;;18.00;34.40;19.60;98932.00;;;;5593411;25;2289;-42
2024/04/14 00:11:11;;;;;;;;;;;18.00;35.00;19.60;98930.00;;;;5595858;25;2230;-39
2024/04/14 00:13:38;;;;;;;;;;;17.90;35.40;19.50;98933.00;;;;5595162;25;1981;-41
2024/04/14 00:16:12;;;;;;;;;;;17.90;35.90;19.60;98931.00;;;;5597109;25;2242;-39
2024/04/14 00:18:42;;;;;;;;;;;17.80;35.30;19.60;98921.00;;;;5594291;25;1954;-40
2024/04/14 00:21:13;;;;;;;;;;;17.80;35.10;19.60;98916.00;;;;5593859;25;2331;-40
2024/04/14 00:23:40;;;;;;;;;;;17.90;35.00;19.60;98920.00;;;;5593876;25;2188;-42
2024/04/14 00:26:10;;;;;;;;;;;17.90;34.90;19.60;98911.00;;;;5595288;25;2099;-41
2024/04/14 00:28:38;;;;;;;;;;;17.90;34.90;19.60;98920.00;;;;5595683;25;2234;-41
2024/04/14 00:31:09;;;;;;;;;;;17.90;34.70;19.60;98917.00;;;;5593191;25;1649;-41
2024/04/14 00:33:36;;;;;;;;;;;18.00;34.70;19.60;98909.00;;;;5585518;25;2465;-41
2024/04/14 00:36:09;;;;;;;;;;;18.00;34.50;19.60;98900.00;;;;5585171;25;2419;-41
2024/04/14 00:38:36;;;;;;;;;;;18.00;34.50;19.60;98904.00;;;;5585497;25;2401;-40
2024/04/14 00:41:06;;;;;;;;;;;18.00;34.30;19.60;98899.00;;;;5586352;25;1459;-45
2024/04/14 00:43:34;;;;;;;;;;;18.00;34.20;19.70;98894.00;;;;5589249;25;2185;-40
2024/04/14 00:46:04;;;;;;;;;;;18.00;34.20;19.60;98901.00;;;;5581969;25;2297;-41
2024/04/14 00:48:32;;;;;;;;;;;18.00;34.10;19.60;98891.00;;;;5593834;25;2261;-41
2024/04/14 00:51:02;;;;;;;;;;;18.00;34.30;19.60;98892.00;;;;5590910;25;1878;-42
2024/04/14 00:53:32;;;;;;;;;;;18.00;34.60;19.50;98896.00;;;;5593238;25;2207;-41
2024/04/14 00:56:02;;;;;;;;;;;17.90;34.80;19.50;98905.00;;;;5592393;25;2180;-41
2024/04/14 00:58:29;;;;;;;;;;;17.90;35.00;19.60;98900.00;;;;5591237;25;2400;-40
2024/04/14 01:00:59;;;;;;;;;;;17.90;34.70;19.60;98905.00;;;;5595022;25;2103;-41
2024/04/14 01:03:27;;;;;;;;;;;17.90;34.70;19.60;98896.00;;;;5589820;25;2210;-40
2024/04/14 01:05:57;;;;;;;;;;;17.90;34.60;19.60;98903.00;;;;5594572;25;1942;-44
2024/04/14 01:08:24;;;;;;;;;;;17.90;34.40;19.60;98894.00;;;;5591371;25;2099;-42
2024/04/14 01:10:57;;;;;;;;;;;17.90;34.20;19.60;98896.00;;;;5595283;25;2171;-40
2024/04/14 01:13:24;;;;;;;;;;;17.90;34.20;19.60;98897.00;;;;5590168;25;2239;-44
2024/04/14 01:15:54;;;;;;;;;;;18.00;34.10;19.60;98898.00;;;;5594261;25;2232;-40
2024/04/14 01:18:22;;;;;;;;;;;18.00;34.10;19.60;98891.00;;;;5594745;25;2268;-41
2024/04/14 01:20:52;;;;;;;;;;;17.90;34.10;19.50;98896.00;;;;5592101;25;2183;-41
2024/04/14 01:23:20;;;;;;;;;;;17.90;34.60;19.50;98894.00;;;;5588494;25;2184;-39
2024/04/14 01:25:52;;;;;;;;;;;17.80;34.90;19.40;98887.00;;;;5589914;25;2310;-40
2024/04/14 01:28:20;;;;;;;;;;;17.80;35.30;19.40;98857.00;;;;5586202;25;3256;-43
2024/04/14 01:30:50;;;;;;;;;;;17.70;35.60;19.30;98887.00;;;;5590799;25;2186;-42
2024/04/14 01:33:17;;;;;;;;;;;17.70;35.90;19.30;98876.00;;;;5589127;25;1991;-41
2024/04/14 01:35:47;;;;;;;;;;;17.70;35.60;19.40;98877.00;;;;5589628;25;1754;-41
2024/04/14 01:38:14;;;;;;;;;;;17.70;35.30;19.40;98889.00;;;;5588740;25;1979;-43
2024/04/14 01:40:57;;;;;;;;;;;17.70;35.10;19.40;98897.00;;;;5593410;25;2350;-41
2024/04/14 01:43:24;;;;;;;;;;;17.80;35.00;19.40;98883.00;;;;5592112;25;2217;-43
2024/04/14 01:45:54;;;;;;;;;;;17.80;34.80;19.40;98882.00;;;;5590383;25;2329;-41
2024/04/14 01:48:21;;;;;;;;;;;17.80;34.70;19.40;98884.00;;;;5589971;25;1999;-42
2024/04/14 01:50:51;;;;;;;;;;;17.80;34.60;19.50;98877.00;;;;5594045;25;2375;-43
2024/04/14 01:53:19;;;;;;;;;;;17.80;34.40;19.40;98875.00;;;;5592433;25;2396;-40
2024/04/14 01:55:49;;;;;;;;;;;17.80;34.40;19.40;98867.00;;;;5591418;25;2274;-40
2024/04/14 01:58:18;;;;;;;;;;;17.80;35.10;19.30;98870.00;;;;5587842;25;2247;-41
2024/04/14 02:00:48;;;;;;;;;;;17.70;35.50;19.30;98872.00;;;;5589054;25;2304;-41
2024/04/14 02:03:16;;;;;;;;;;;17.70;35.50;19.30;98877.00;;;;5592257;25;2166;-41
2024/04/14 02:05:46;;;;;;;;;;;17.70;35.10;19.40;98873.00;;;;5596049;25;2325;-41
2024/04/14 02:08:13;;;;;;;;;;;17.70;35.00;19.40;98866.00;;;;5594044;25;2216;-40
2024/04/14 02:10:43;;;;;;;;;;;17.70;34.80;19.30;98864.00;;;;5591166;25;2237;-42
2024/04/14 02:13:11;;;;;;;;;;;17.70;34.60;19.40;98873.00;;;;5592194;25;2557;-41
2024/04/14 02:15:43;;;;;;;;;;;17.80;34.70;19.40;98865.00;;;;5593211;25;2215;-40
2024/04/14 02:18:10;;;;;;;;;;;17.80;34.50;19.40;98870.00;;;;5592810;25;2102;-39
2024/04/14 02:20:40;;;;;;;;;;;17.80;34.40;19.40;98871.00;;;;5596152;25;2420;-41
2024/04/14 02:23:08;;;;;;;;;;;17.80;34.30;19.40;98873.00;;;;5593414;25;2193;-40
2024/04/14 02:25:38;;;;;;;;;;;17.70;34.80;19.30;98865.00;;;;5594206;25;2249;-40
2024/04/14 02:28:06;;;;;;;;;;;17.70;35.30;19.30;98871.00;;;;5596427;25;2239;-41
2024/04/14 02:30:36;;;;;;;;;;;17.70;35.70;19.40;98866.00;;;;5596176;25;2189;-42
2024/04/14 02:33:06;;;;;;;;;;;17.70;35.10;19.40;98863.00;;;;5595409;25;1992;-41
2024/04/14 02:35:36;;;;;;;;;;;17.70;34.90;19.30;98871.00;;;;5589175;25;2182;-44
2024/04/14 02:38:04;;;;;;;;;;;17.70;34.80;19.30;98856.00;;;;5593708;25;2150;-40
2024/04/14 02:40:34;;;;;;;;;;;17.70;34.60;19.40;98869.00;;;;5588385;25;2510;-42
2024/04/14 02:43:01;;;;;;;;;;;17.80;34.60;19.40;98862.00;;;;5584990;25;2300;-42
2024/04/14 02:45:31;;;;;;;;;;;17.80;34.40;19.40;98867.00;;;;5593480;25;2281;-41
2024/04/14 02:47:58;;;;;;;;;;;17.80;34.40;19.40;98861.00;;;;5593486;25;2138;-40
2024/04/14 02:50:31;;;;;;;;;;;17.80;34.30;19.40;98866.00;;;;5592351;25;2230;-41
2024/04/14 02:52:58;;;;;;;;;;;17.70;34.70;19.30;98849.00;;;;5591648;25;2340;-40
2024/04/14 02:55:28;;;;;;;;;;;17.70;35.20;19.30;98855.00;;;;5593737;25;2321;-42
2024/04/14 02:57:55;;;;;;;;;;;17.70;35.50;19.30;98862.00;;;;5592876;25;2345;-42
2024/04/14 03:00:25;;;;;;;;;;;17.70;35.30;19.30;98849.00;;;;5594159;25;2221;-41
2024/04/14 03:02:53;;;;;;;;;;;17.70;35.10;19.30;98858.00;;;;5592023;25;2303;-40
2024/04/14 03:05:23;;;;;;;;;;;17.70;34.90;19.40;98850.00;;;;5596792;25;2203;-42
2024/04/14 03:07:52;;;;;;;;;;;17.70;34.70;19.40;98856.00;;;;5596656;25;2105;-42
2024/04/14 03:10:23;;;;;;;;;;;17.70;34.50;19.40;98862.00;;;;5596571;25;1961;-43
2024/04/14 03:12:50;;;;;;;;;;;17.80;34.50;19.40;98868.00;;;;5590852;25;2189;-44
2024/04/14 03:15:20;;;;;;;;;;;17.80;34.40;19.40;98861.00;;;;5591321;25;2199;-41
2024/04/14 03:17:47;;;;;;;;;;;17.70;34.20;19.40;98861.00;;;;5595797;25;2184;-40
2024/04/14 03:20:17;;;;;;;;;;;17.80;34.40;19.40;98858.00;;;;5595952;25;2023;-42
2024/04/14 03:22:45;;;;;;;;;;;17.70;34.80;19.30;98860.00;;;;5594441;25;2362;-41
2024/04/14 03:25:18;;;;;;;;;;;17.70;35.00;19.30;98865.00;;;;5594074;25;2128;-40
2024/04/14 03:27:46;;;;;;;;;;;17.60;35.30;19.20;98859.00;;;;5594214;25;3157;-40
2024/04/14 03:30:17;;;;;;;;;;;17.50;35.70;19.20;98866.00;;;;5593945;25;2215;-40
2024/04/14 03:32:44;;;;;;;;;;;17.50;36.00;19.10;98870.00;;;;5596216;25;2384;-40
2024/04/14 03:35:14;;;;;;;;;;;17.50;36.00;19.20;98856.00;;;;5595073;25;3097;-39
2024/04/14 03:37:44;;;;;;;;;;;17.60;35.60;19.20;98861.00;;;;5590189;25;2290;-41
2024/04/14 03:40:14;;;;;;;;;;;17.60;35.30;19.20;98858.00;;;;5594403;25;2405;-40
2024/04/14 03:42:46;;;;;;;;;;;17.60;35.20;19.20;98861.00;;;;5593866;25;1975;-42
2024/04/14 03:45:19;;;;;;;;;;;17.60;35.00;19.20;98858.00;;;;5588810;25;2195;-40
2024/04/14 03:47:48;;;;;;;;;;;17.60;34.90;19.30;98860.00;;;;5592872;25;2229;-39
2024/04/14 03:50:18;;;;;;;;;;;17.70;34.70;19.30;98855.00;;;;5593004;25;2186;-39
2024/04/14 03:52:46;;;;;;;;;;;17.70;34.60;19.30;98845.00;;;;5596910;25;1564;-41
2024/04/14 03:55:16;;;;;;;;;;;17.70;34.50;19.20;98849.00;;;;5596011;25;1852;-41
2024/04/14 03:57:46;;;;;;;;;;;17.60;35.10;19.20;98851.00;;;;5593889;25;2321;-41
2024/04/14 04:00:16;;;;;;;;;;;17.60;35.50;19.20;98855.00;;;;5592405;25;2331;-42
2024/04/14 04:02:43;;;;;;;;;;;17.60;35.60;19.20;98852.00;;;;5594077;25;2430;-40
2024/04/14 04:05:13;;;;;;;;;;;17.50;35.20;19.20;98852.00;;;;5596974;25;2205;-41
2024/04/14 04:07:40;;;;;;;;;;;17.60;35.10;19.20;98852.00;;;;5592451;25;2386;-42
2024/04/14 04:10:10;;;;;;;;;;;17.60;35.00;19.30;98845.00;;;;5590671;25;2173;-40
2024/04/14 04:12:37;;;;;;;;;;;17.60;34.80;19.30;98843.00;;;;5591876;25;2291;-41
2024/04/14 04:15:10;;;;;;;;;;;17.60;34.70;19.30;98846.00;;;;5593106;25;2016;-40
2024/04/14 04:17:37;;;;;;;;;;;17.60;34.60;19.30;98850.00;;;;5595093;25;2208;-41
2024/04/14 04:20:08;;;;;;;;;;;17.60;34.40;19.30;98850.00;;;;5596062;25;1956;-40
2024/04/14 04:22:35;;;;;;;;;;;17.70;34.40;19.20;98854.00;;;;5591240;25;2106;-40
2024/04/14 04:25:05;;;;;;;;;;;17.60;34.90;19.20;98844.00;;;;5593009;25;2025;-40
2024/04/14 04:27:33;;;;;;;;;;;17.60;35.30;19.20;98855.00;;;;5593740;25;2277;-40
2024/04/14 04:30:03;;;;;;;;;;;17.50;35.60;19.20;98854.00;;;;5593237;25;1871;-41
2024/04/14 04:32:33;;;;;;;;;;;17.50;35.00;19.20;98850.00;;;;5594398;25;2384;-40
2024/04/14 04:35:07;;;;;;;;;;;17.50;35.00;19.20;98862.00;;;;5593404;25;2125;-40
2024/04/14 04:37:34;;;;;;;;;;;17.50;34.80;19.20;98859.00;;;;5594032;25;2217;-40
2024/04/14 04:40:04;;;;;;;;;;;17.60;34.80;19.20;98858.00;;;;5596313;25;2072;-42
2024/04/14 04:42:32;;;;;;;;;;;17.60;34.60;19.30;98867.00;;;;5593422;25;2207;-41
2024/04/14 04:45:02;;;;;;;;;;;17.60;34.50;19.30;98860.00;;;;5590832;25;1875;-40
2024/04/14 04:47:29;;;;;;;;;;;17.60;34.30;19.30;98859.00;;;;5595397;25;2340;-42
2024/04/14 04:50:02;;;;;;;;;;;17.60;34.30;19.20;98863.00;;;;5594446;25;2214;-40
2024/04/14 04:52:30;;;;;;;;;;;17.60;34.70;19.20;98875.00;;;;5592458;25;2286;-39
2024/04/14 04:54:59;;;;;;;;;;;17.50;35.00;19.20;98878.00;;;;5594400;25;2387;-42
2024/04/14 04:57:27;;;;;;;;;;;17.50;35.50;19.20;98882.00;;;;5590385;25;3033;-43
2024/04/14 04:59:57;;;;;;;;;;;17.50;35.40;19.20;98875.00;;;;5595336;25;2863;-40
2024/04/14 05:02:24;;;;;;;;;;;17.50;35.00;19.20;98885.00;;;;5595017;25;2156;-41
2024/04/14 05:04:55;;;;;;;;;;;17.50;34.90;19.20;98879.00;;;;5595629;25;2196;-41
2024/04/14 05:07:27;;;;;;;;;;;17.60;34.80;19.20;98879.00;;;;5594701;25;2185;-43
2024/04/14 05:09:57;;;;;;;;;;;17.60;34.60;19.20;98883.00;;;;5594527;25;2367;-41
2024/04/14 05:12:25;;;;;;;;;;;17.60;34.50;19.20;98885.00;;;;5587876;25;2050;-41
2024/04/14 05:14:55;;;;;;;;;;;17.60;35.00;19.30;98893.00;;;;5595293;25;2338;-40
2024/04/14 05:17:23;;;;;;;;;;;17.70;34.30;19.30;98885.00;;;;5594547;25;2259;-41
2024/04/14 05:19:53;;;;;;;;;;;17.60;34.40;19.20;98890.00;;;;5595206;25;2161;-41
2024/04/14 05:22:20;;;;;;;;;;;17.60;34.70;19.20;98892.00;;;;5592060;25;2297;-43
2024/04/14 05:24:52;;;;;;;;;;;17.50;34.90;19.10;98895.00;;;;5593947;25;2506;-39
2024/04/14 05:27:24;;;;;;;;;;;17.50;35.20;19.10;98889.00;;;;5587383;25;2123;-40
2024/04/14 05:29:51;;;;;;;;;;;17.50;35.70;19.10;98890.00;;;;5593353;25;2254;-40
2024/04/14 05:32:22;;;;;;;;;;;17.40;35.90;19.00;98890.00;;;;5589953;25;2231;-42
2024/04/14 05:34:49;;;;;;;;;;;17.40;35.80;19.10;98896.00;;;;5593400;25;1984;-44
2024/04/14 05:37:19;;;;;;;;;;;17.50;35.40;19.10;98896.00;;;;5585885;25;2172;-43
2024/04/14 05:39:47;;;;;;;;;;;17.50;35.20;19.20;98899.00;;;;5595234;25;2368;-41
2024/04/14 05:42:19;;;;;;;;;;;17.60;35.10;19.20;98891.00;;;;5595662;25;1996;-39
2024/04/14 05:44:47;;;;;;;;;;;17.60;35.00;19.20;98903.00;;;;5596131;25;2218;-39
2024/04/14 05:47:17;;;;;;;;;;;17.60;34.80;19.30;98896.00;;;;5597598;25;2222;-41
2024/04/14 05:49:44;;;;;;;;;;;17.60;34.60;19.30;98900.00;;;;5594980;25;2219;-41
2024/04/14 05:52:14;;;;;;;;;;;17.60;34.60;19.30;98888.00;;;;5594807;25;2024;-40
2024/04/14 05:54:41;;;;;;;;;;;17.70;34.50;19.20;98893.00;;;;5595915;25;2501;-40
2024/04/14 05:57:11;;;;;;;;;;;17.70;35.10;19.20;98892.00;;;;5597303;25;2171;-40
2024/04/14 05:59:41;;;;;;;;;;;17.60;35.40;19.20;98908.00;;;;5594835;25;2372;-44
2024/04/14 06:02:11;;;;;;;;;;;17.60;35.70;19.30;98900.00;;;;5586353;25;2785;-41
2024/04/14 06:04:38;;;;;;;;;;;17.60;35.30;19.30;98891.00;;;;5593302;25;2170;-41
2024/04/14 06:07:09;;;;;;;;;;;17.70;35.10;19.30;98905.00;;;;5595978;25;2209;-39
2024/04/14 06:09:36;;;;;;;;;;;17.70;34.90;19.30;98899.00;;;;5596089;25;2105;-41
2024/04/14 06:12:07;;;;;;;;;;;17.80;34.80;19.30;98900.00;;;;5597652;25;2312;-40
2024/04/14 06:14:34;;;;;;;;;;;17.80;34.70;19.40;98897.00;;;;5594711;25;2319;-41
2024/04/14 06:17:07;;;;;;;;;;;17.80;34.50;19.40;98903.00;;;;5595114;25;2362;-40
2024/04/14 06:19:34;;;;;;;;;;;17.80;34.40;19.40;98913.00;;;;5596079;25;2052;-41
2024/04/14 06:22:04;;;;;;;;;;;17.80;34.40;19.40;98909.00;;;;5597348;25;2000;-42
2024/04/14 06:24:31;;;;;;;;;;;17.80;35.00;19.40;98912.00;;;;5595514;25;3084;-41
2024/04/14 06:27:01;;;;;;;;;;;17.80;35.20;19.40;98909.00;;;;5596237;25;2350;-40
2024/04/14 06:29:28;;;;;;;;;;;17.70;35.60;19.50;98907.00;;;;5596149;25;2351;-40
2024/04/14 06:32:00;;;;;;;;;;;17.80;35.90;19.40;98917.00;;;;5585139;25;2293;-41
2024/04/14 06:34:30;;;;;;;;;;;17.80;35.00;19.50;98907.00;;;;5586754;25;2441;-40
2024/04/14 06:37:00;;;;;;;;;;;17.80;34.90;19.50;98913.00;;;;5585050;25;1852;-40
2024/04/14 06:39:28;;;;;;;;;;;17.80;34.70;19.50;98906.00;;;;5581039;25;2392;-40
2024/04/14 06:41:58;;;;;;;;;;;17.80;34.50;19.50;98913.00;;;;5588937;25;1805;-40
2024/04/14 06:44:25;;;;;;;;;;;17.90;34.50;19.50;98920.00;;;;5595478;25;2424;-43
2024/04/14 06:46:55;;;;;;;;;;;17.90;34.40;19.50;98914.00;;;;5594499;25;2266;-41
2024/04/14 06:49:23;;;;;;;;;;;17.90;34.40;19.60;98921.00;;;;5588487;25;2214;-40
2024/04/14 06:51:56;;;;;;;;;;;17.90;34.70;19.50;98919.00;;;;5596371;25;1950;-41
2024/04/14 06:54:24;;;;;;;;;;;17.90;35.20;19.50;98928.00;;;;5596090;25;2181;-40
2024/04/14 06:56:54;;;;;;;;;;;17.80;35.40;19.60;98923.00;;;;5595792;25;2288;-40
2024/04/14 06:59:21;;;;;;;;;;;17.80;35.20;19.60;98914.00;;;;5594284;25;1789;-40
2024/04/14 07:01:51;;;;;;;;;;;17.90;35.10;19.60;98923.00;;;;5590454;25;2196;-44
2024/04/14 07:04:19;;;;;;;;;;;17.90;34.90;19.60;98926.00;;;;5589628;25;2376;-42
2024/04/14 07:06:49;;;;;;;;;;;18.00;34.80;19.60;98921.00;;;;5595733;25;2117;-39
2024/04/14 07:09:19;;;;;;;;;;;18.00;34.60;19.60;98928.00;;;;5588410;25;3322;-40
2024/04/14 07:11:49;;;;;;;;;;;18.10;34.50;19.70;98927.00;;;;5589111;25;2189;-41
2024/04/14 07:14:16;;;;;;;;;;;18.10;34.40;19.70;98931.00;;;;5588702;25;3144;-39
2024/04/14 07:16:46;;;;;;;;;;;18.10;34.20;19.80;98921.00;;;;5594393;25;2024;-41
2024/04/14 07:19:14;;;;;;;;;;;18.10;34.20;19.70;98924.00;;;;5596538;25;2205;-40
2024/04/14 07:21:44;;;;;;;;;;;18.20;34.40;19.80;98911.00;;;;5595643;25;2301;-42
2024/04/14 07:24:12;;;;;;;;;;;18.10;34.60;19.80;98912.00;;;;5594106;25;2186;-39
2024/04/14 07:26:44;;;;;;;;;;;18.00;34.90;19.70;98922.00;;;;5593164;25;2213;-40
2024/04/14 07:29:13;;;;;;;;;;;18.10;35.50;19.80;98916.00;;;;5592182;25;2345;-41
2024/04/14 07:31:43;;;;;;;;;;;18.00;35.70;19.70;98919.00;;;;5580810;25;2328;-42
2024/04/14 07:34:10;;;;;;;;;;;18.00;36.00;19.70;98915.00;;;;5584239;25;2411;-40
2024/04/14 07:36:40;;;;;;;;;;;18.10;35.40;19.70;98912.00;;;;5588992;25;3265;-39
2024/04/14 07:39:10;;;;;;;;;;;18.10;35.20;19.70;98908.00;;;;5594079;25;2324;-39
2024/04/14 07:41:37;;;;;;;;;;;18.10;35.00;19.70;98913.00;;;;5586181;25;2215;-41
2024/04/14 07:44:10;;;;;;;;;;;18.10;34.80;19.80;98909.00;;;;5595197;25;2019;-39
2024/04/14 07:46:37;;;;;;;;;;;18.20;34.70;19.80;98899.00;;;;5592818;25;2077;-39
2024/04/14 07:49:07;;;;;;;;;;;18.20;34.50;19.80;98909.00;;;;5595177;25;2049;-40
2024/04/14 07:51:35;;;;;;;;;;;18.20;34.50;19.90;98906.00;;;;5593891;25;2351;-41
2024/04/14 07:54:06;;;;;;;;;;;18.20;34.30;19.90;98902.00;;;;5592226;25;2195;-41
2024/04/14 07:56:33;;;;;;;;;;;18.20;35.00;19.90;98903.00;;;;5587125;25;2154;-42
2024/04/14 07:59:04;;;;;;;;;;;18.20;35.30;19.90;98907.00;;;;5595235;25;2262;-39
2024/04/14 08:01:34;;;;;;;;;;;18.20;35.70;19.90;98911.00;;;;5592731;25;2278;-41
2024/04/14 08:04:04;;;;;;;;;;;18.20;35.10;19.90;98887.00;;;;5585232;25;2399;-42
2024/04/14 08:06:32;;;;;;;;;;;18.20;34.90;19.90;98916.00;;;;5580109;25;2208;-42
2024/04/14 08:09:02;;;;;;;;;;;18.30;34.80;20.00;98910.00;;;;5591260;25;2272;-41
2024/04/14 08:11:29;;;;;;;;;;;18.30;34.60;20.00;98922.00;;;;5591828;25;2243;-41
2024/04/14 08:14:00;;;;;;;;;;;18.30;34.50;20.00;98923.00;;;;5592654;25;2288;-41
2024/04/14 08:16:27;;;;;;;;;;;18.40;34.40;20.00;98920.00;;;;5589028;25;2237;-40
2024/04/14 08:19:00;;;;;;;;;;;18.40;34.30;20.00;98919.00;;;;5594175;25;2179;-40
2024/04/14 08:21:27;;;;;;;;;;;18.40;34.20;20.10;98919.00;;;;5592581;25;1935;-41
2024/04/14 08:23:57;;;;;;;;;;;18.40;34.60;20.10;98927.00;;;;5591452;25;2192;-40
2024/04/14 08:26:25;;;;;;;;;;;18.40;35.20;20.10;98928.00;;;;5588967;25;2304;-40
2024/04/14 08:28:55;;;;;;;;;;;18.40;35.50;20.10;98919.00;;;;5588644;25;1809;-41
2024/04/14 08:31:22;;;;;;;;;;;18.40;35.00;20.10;98931.00;;;;5591674;25;2189;-41
2024/04/14 08:33:52;;;;;;;;;;;18.40;34.80;20.10;98931.00;;;;5586529;25;2189;-41
2024/04/14 08:36:22;;;;;;;;;;;18.40;34.60;20.10;98934.00;;;;5585495;25;2108;-42
2024/04/14 08:38:52;;;;;;;;;;;18.50;34.60;20.20;98925.00;;;;5591478;25;2279;-39
2024/04/14 08:41:21;;;;;;;;;;;18.50;34.40;20.20;98928.00;;;;5581159;25;1855;-43
2024/04/14 08:43:51;;;;;;;;;;;18.50;34.30;20.20;98926.00;;;;5592888;25;2310;-40
2024/04/14 08:46:18;;;;;;;;;;;18.50;34.20;20.20;98921.00;;;;5586081;25;3440;-40
2024/04/14 08:48:49;;;;;;;;;;;18.60;34.20;20.30;98920.00;;;;5592710;25;2303;-40
2024/04/14 08:51:18;;;;;;;;;;;18.50;34.20;20.30;98926.00;;;;5587371;25;2321;-40
2024/04/14 08:53:53;;;;;;;;;;;18.50;34.90;20.30;98930.00;;;;5592393;25;2383;-39
2024/04/14 08:56:24;;;;;;;;;;;18.50;35.10;20.30;98916.00;;;;5588933;25;2218;-38
2024/04/14 08:58:54;;;;;;;;;;;18.50;35.50;20.30;98918.00;;;;5587084;25;2355;-40
2024/04/14 09:01:22;;;;;;;;;;;18.50;34.60;20.30;98915.00;;;;5592750;25;2187;-40
2024/04/14 09:03:53;;;;;;;;;;;18.50;34.50;20.30;98922.00;;;;5591039;25;2246;-40
2024/04/14 09:06:20;;;;;;;;;;;18.60;34.50;20.30;98911.00;;;;5585629;25;2386;-44
2024/04/14 09:08:53;;;;;;;;;;;18.60;34.30;20.40;98915.00;;;;5584172;25;2241;-39
2024/04/14 09:11:20;;;;;;;;;;;18.60;34.20;20.40;98916.00;;;;5586257;25;2213;-40
2024/04/14 09:13:50;;;;;;;;;;;18.60;34.10;20.40;98922.00;;;;5589707;25;2082;-40
2024/04/14 09:16:18;;;;;;;;;;;18.60;34.00;20.50;98913.00;;;;5591987;25;2374;-40
2024/04/14 09:18:48;;;;;;;;;;;18.70;34.00;20.40;98924.00;;;;5592347;25;2358;-40
2024/04/14 09:21:15;;;;;;;;;;;18.70;34.80;20.50;98918.00;;;;5587787;25;2258;-40
2024/04/14 09:23:56;;;;;;;;;;;18.60;34.90;20.40;98917.00;;;;5592398;25;2334;-40
2024/04/14 09:26:25;;;;;;;;;;;18.60;35.20;20.40;98929.00;;;;5593942;25;2901;-40
2024/04/14 09:29:03;;;;;;;;;;;18.60;35.40;20.40;98924.00;;;;5591662;25;2428;-39
2024/04/14 09:31:31;;;;;;;;;;;18.60;35.80;20.30;98919.00;;;;5591808;25;2348;-39
2024/04/14 09:34:00;;;;;;;;;;;18.60;36.10;20.40;98918.00;;;;5591248;25;2338;-40
2024/04/14 09:36:28;;;;;;;;;;;18.60;35.40;20.40;98918.00;;;;5593106;25;2193;-40
2024/04/14 09:39:00;;;;;;;;;;;18.60;35.20;20.40;98922.00;;;;5581548;25;2362;-40
2024/04/14 09:41:28;;;;;;;;;;;18.60;35.00;20.40;98926.00;;;;5590497;25;2341;-40
2024/04/14 09:43:58;;;;;;;;;;;18.70;34.90;20.40;98922.00;;;;5585305;25;1981;-39
2024/04/14 09:46:26;;;;;;;;;;;18.70;34.70;20.40;98919.00;;;;5587540;25;2237;-40
2024/04/14 09:48:57;;;;;;;;;;;18.70;34.60;20.50;98921.00;;;;5585372;25;2563;-38
2024/04/14 09:51:24;;;;;;;;;;;18.70;34.50;20.50;98916.00;;;;5579141;25;2161;-40
2024/04/14 09:53:55;;;;;;;;;;;18.70;34.40;20.50;98915.00;;;;5581857;25;2336;-39
2024/04/14 09:56:25;;;;;;;;;;;18.80;35.00;20.50;98924.00;;;;5582185;25;2035;-39
2024/04/14 09:58:55;;;;;;;;;;;18.70;35.10;20.50;98921.00;;;;5584469;25;2037;-40
2024/04/14 10:01:24;;;;;;;;;;;18.70;35.30;20.50;98923.00;;;;5584627;25;2241;-42
2024/04/14 10:03:56;;;;;;;;;;;18.70;35.10;20.60;98923.00;;;;5583548;25;2184;-40
2024/04/14 10:06:23;;;;;;;;;;;18.70;34.90;20.50;98911.00;;;;5580409;25;2194;-40
2024/04/14 10:08:53;;;;;;;;;;;18.80;34.80;20.50;98923.00;;;;5579574;25;1825;-44
2024/04/14 10:11:25;;;;;;;;;;;18.80;34.60;20.50;98915.00;;;;5587540;25;2148;-41
2024/04/14 10:13:56;;;;;;;;;;;18.80;34.50;20.60;98922.00;;;;5582505;25;2244;-40
2024/04/14 10:16:25;;;;;;;;;;;18.80;34.40;20.60;98905.00;;;;5591481;25;2417;-40
2024/04/14 10:18:55;;;;;;;;;;;18.80;34.20;20.60;98901.00;;;;5587097;25;2260;-40
2024/04/14 10:21:22;;;;;;;;;;;18.80;34.10;20.60;98895.00;;;;5587548;25;2360;-39
2024/04/14 10:23:55;;;;;;;;;;;18.80;34.60;20.60;98897.00;;;;5580133;25;3022;-40
2024/04/14 10:26:25;;;;;;;;;;;18.80;34.90;20.60;98904.00;;;;5589666;25;2377;-40
2024/04/14 10:28:55;;;;;;;;;;;18.80;35.00;20.60;98894.00;;;;5584874;25;2278;-40
2024/04/14 10:31:26;;;;;;;;;;;18.80;34.90;20.60;98889.00;;;;5596320;25;2179;-40
2024/04/14 10:34:04;;;;;;;;;;;18.80;34.80;20.70;98890.00;;;;5590281;25;2240;-39
2024/04/14 10:36:32;;;;;;;;;;;18.80;34.60;20.60;98899.00;;;;5593508;25;1975;-40
2024/04/14 10:39:02;;;;;;;;;;;18.80;34.50;20.70;98893.00;;;;5592696;25;2344;-39
2024/04/14 10:41:32;;;;;;;;;;;18.80;34.30;20.70;98888.00;;;;5584246;25;2182;-40
2024/04/14 10:44:02;;;;;;;;;;;18.90;34.30;20.70;98897.00;;;;5590340;25;2245;-40
2024/04/14 10:46:31;;;;;;;;;;;18.90;34.20;20.70;98883.00;;;;5584699;25;2423;-40
2024/04/14 10:49:01;;;;;;;;;;;18.90;34.10;20.70;98890.00;;;;5589710;25;2274;-40
2024/04/14 10:51:29;;;;;;;;;;;18.90;34.40;20.70;98882.00;;;;5590524;25;2338;-39
2024/04/14 10:53:59;;;;;;;;;;;18.90;34.70;20.70;98878.00;;;;5593926;25;2332;-41
2024/04/14 10:56:27;;;;;;;;;;;18.90;34.80;20.70;98869.00;;;;5594939;25;3286;-44
2024/04/14 10:59:00;;;;;;;;;;;18.90;34.90;20.70;98885.00;;;;5592801;25;2306;-39
2024/04/14 11:01:27;;;;;;;;;;;18.80;34.60;20.70;98878.00;;;;5590431;25;2177;-40
2024/04/14 11:03:57;;;;;;;;;;;18.90;34.60;20.70;98874.00;;;;5589077;25;1961;-39
2024/04/14 11:06:25;;;;;;;;;;;18.90;34.40;20.70;98876.00;;;;5590022;25;2251;-39
2024/04/14 11:08:58;;;;;;;;;;;18.90;34.30;20.70;98874.00;;;;5593414;25;2036;-40
2024/04/14 11:11:25;;;;;;;;;;;18.90;34.20;20.80;98872.00;;;;5585662;25;2229;-40
2024/04/14 11:13:55;;;;;;;;;;;19.00;34.20;20.80;98864.00;;;;5591303;25;1968;-40
2024/04/14 11:16:25;;;;;;;;;;;19.00;34.10;20.80;98870.00;;;;5595323;25;2144;-40
2024/04/14 11:18:56;;;;;;;;;;;19.00;34.00;20.80;98867.00;;;;5592430;25;2243;-40
2024/04/14 11:21:24;;;;;;;;;;;19.00;34.60;20.80;98855.00;;;;5589398;25;2373;-40
2024/04/14 11:23:54;;;;;;;;;;;19.00;34.80;20.80;98862.00;;;;5594171;25;2123;-38
2024/04/14 11:26:21;;;;;;;;;;;19.00;35.00;20.80;98830.00;;;;5591607;25;2341;-39
2024/04/14 11:28:51;;;;;;;;;;;18.90;35.00;20.80;98839.00;;;;5586836;25;2180;-39
2024/04/14 11:31:19;;;;;;;;;;;18.90;35.40;20.80;98842.00;;;;5592708;25;2348;-39
2024/04/14 11:33:56;;;;;;;;;;;18.90;35.80;20.70;98840.00;;;;5593886;25;2318;-40
2024/04/14 11:36:30;;;;;;;;;;;18.90;35.50;20.80;98849.00;;;;5587625;25;2214;-41
2024/04/14 11:39:00;;;;;;;;;;;18.90;35.20;20.70;98848.00;;;;5592054;25;2191;-38
2024/04/14 11:41:27;;;;;;;;;;;18.90;35.00;20.80;98837.00;;;;5591449;25;2003;-42
2024/04/14 11:43:57;;;;;;;;;;;18.90;35.10;20.80;98832.00;;;;5586540;25;2181;-40
2024/04/14 11:46:24;;;;;;;;;;;18.90;34.70;20.80;98834.00;;;;5594693;25;2286;-40
2024/04/14 11:48:58;;;;;;;;;;;19.00;34.60;20.80;98837.00;;;;5591549;25;2007;-38
2024/04/14 11:51:25;;;;;;;;;;;19.00;34.50;20.80;98830.00;;;;5580556;25;2042;-39
2024/04/14 11:53:55;;;;;;;;;;;19.00;34.40;20.80;98833.00;;;;5592758;25;2028;-40
2024/04/14 11:56:22;;;;;;;;;;;19.00;34.90;20.90;98843.00;;;;5594512;25;2250;-39
2024/04/14 11:58:52;;;;;;;;;;;19.00;35.00;20.80;98837.00;;;;5593578;25;2240;-39
2024/04/14 12:01:20;;;;;;;;;;;19.00;35.20;20.80;98843.00;;;;5588915;25;2436;-38
2024/04/14 12:03:50;;;;;;;;;;;19.00;35.10;20.90;98834.00;;;;5592666;25;2094;-39
2024/04/14 12:06:21;;;;;;;;;;;19.00;34.90;20.80;98838.00;;;;5589422;25;2217;-41
2024/04/14 12:08:51;;;;;;;;;;;19.00;34.80;20.90;98834.00;;;;5593927;25;2478;-39
2024/04/14 12:11:18;;;;;;;;;;;19.00;34.60;20.90;98839.00;;;;5586867;25;2052;-39
2024/04/14 12:13:48;;;;;;;;;;;19.00;34.50;20.90;98825.00;;;;5584046;25;2525;-44
2024/04/14 12:16:16;;;;;;;;;;;19.00;34.40;20.90;98829.00;;;;5588739;25;2285;-42
2024/04/14 12:18:46;;;;;;;;;;;19.10;34.30;20.90;98835.00;;;;5591426;25;2158;-39